createdAt,value
2023-09-23T00:01:11.982Z,1.80
2023-09-23T00:03:41.159Z,1.60
2023-09-23T00:06:10.244Z,1.80
2023-09-23T00:08:40.794Z,1.63
2023-09-23T00:11:09.807Z,1.77
2023-09-23T00:13:38.259Z,1.60
2023-09-23T00:16:10.140Z,1.65
2023-09-23T00:18:39.397Z,1.60
2023-09-23T00:21:09.362Z,1.90
2023-09-23T00:23:39.403Z,1.63
2023-09-23T00:26:09.361Z,1.73
2023-09-23T00:28:38.127Z,1.40
2023-09-23T00:31:12.685Z,1.50
2023-09-23T00:33:41.363Z,1.25
2023-09-23T00:36:10.587Z,1.85
2023-09-23T00:38:41.263Z,1.60
2023-09-23T00:41:10.393Z,1.60
2023-09-23T00:43:39.317Z,1.55
2023-09-23T00:46:09.673Z,1.27
2023-09-23T00:48:40.393Z,1.17
2023-09-23T00:51:09.370Z,1.70
2023-09-23T00:53:41.122Z,1.60
2023-09-23T00:56:11.094Z,1.40
2023-09-23T00:58:40.825Z,1.83
2023-09-23T01:01:10.017Z,1.50
2023-09-23T01:03:40.267Z,1.88
2023-09-23T01:06:17.763Z,2.20
2023-09-23T01:08:49.426Z,2.47
2023-09-23T01:11:19.522Z,2.22
2023-09-23T01:13:51.960Z,2.25
2023-09-23T01:16:23.107Z,2.53
2023-09-23T01:18:52.393Z,2.20
2023-09-23T01:21:22.652Z,2.83
2023-09-23T01:23:54.542Z,2.60
2023-09-23T01:26:24.656Z,3.20
2023-09-23T01:28:53.453Z,2.80
2023-09-23T01:31:23.642Z,3.08
2023-09-23T01:33:52.583Z,2.55
2023-09-23T01:36:21.299Z,2.45
2023-09-23T01:38:50.856Z,2.42
2023-09-23T01:41:20.985Z,2.55
2023-09-23T01:43:50.217Z,2.55
2023-09-23T01:46:19.000Z,2.33
2023-09-23T01:48:47.652Z,2.40
2023-09-23T01:51:17.869Z,2.55
2023-09-23T01:53:46.304Z,2.28
2023-09-23T01:56:14.814Z,2.75
2023-09-23T01:58:45.707Z,2.42
2023-09-23T02:01:15.482Z,2.40
2023-09-23T02:03:45.063Z,2.22
2023-09-23T02:06:14.110Z,2.72
2023-09-23T02:08:42.452Z,1.85
2023-09-23T02:11:11.112Z,2.13
2023-09-23T02:13:42.347Z,2.30
2023-09-23T02:16:12.490Z,2.28
2023-09-23T02:18:41.165Z,1.92
2023-09-23T02:21:10.208Z,1.67
2023-09-23T02:23:38.486Z,1.60
2023-09-23T02:26:08.767Z,1.50
2023-09-23T02:28:38.154Z,1.63
2023-09-23T02:31:06.823Z,2.00
2023-09-23T02:33:36.587Z,1.60
2023-09-23T02:36:05.572Z,1.85
2023-09-23T02:38:33.750Z,2.00
2023-09-23T02:41:03.821Z,1.98
2023-09-23T02:43:32.134Z,1.90
2023-09-23T02:46:01.596Z,2.05
2023-09-23T02:49:33.528Z,2.13
2023-09-23T02:52:03.892Z,1.50
2023-09-23T02:54:32.147Z,2.22
2023-09-23T02:57:04.428Z,1.98
2023-09-23T02:59:33.705Z,1.60
2023-09-23T03:02:02.471Z,1.98
2023-09-23T03:04:33.812Z,1.65
2023-09-23T03:07:07.740Z,1.83
2023-09-23T03:09:36.018Z,2.05
2023-09-23T03:12:05.397Z,1.55
2023-09-23T03:14:39.854Z,2.10
2023-09-23T03:17:10.526Z,1.90
2023-09-23T03:19:39.736Z,2.08
2023-09-23T03:22:09.929Z,1.70
2023-09-23T03:24:38.221Z,2.15
2023-09-23T03:27:06.892Z,1.60
2023-09-23T03:29:35.244Z,1.67
2023-09-23T03:32:03.998Z,1.50
2023-09-23T03:34:33.896Z,1.90
2023-09-23T03:37:11.229Z,1.85
2023-09-23T03:39:42.733Z,1.88
2023-09-23T03:42:13.346Z,1.52
2023-09-23T03:44:44.482Z,2.13
2023-09-23T03:47:13.183Z,1.95
2023-09-23T03:49:41.514Z,2.33
2023-09-23T03:52:10.146Z,2.15
2023-09-23T03:54:38.396Z,2.20
2023-09-23T03:57:08.985Z,2.00
2023-09-23T03:59:37.377Z,2.20
2023-09-23T04:02:06.474Z,2.30
2023-09-23T04:04:39.019Z,2.42
2023-09-23T04:07:08.766Z,2.20
2023-09-23T04:09:36.958Z,2.20
2023-09-23T04:12:07.644Z,2.40
2023-09-23T04:14:38.380Z,2.20
2023-09-23T04:17:07.895Z,2.53
2023-09-23T04:19:36.196Z,2.25
2023-09-23T04:22:06.051Z,2.83
2023-09-23T04:24:34.548Z,2.25
2023-09-23T04:27:03.492Z,2.42
2023-09-23T04:29:31.745Z,2.85
2023-09-23T04:32:02.226Z,2.20
2023-09-23T04:34:30.922Z,2.25
2023-09-23T04:36:59.567Z,2.55
2023-09-23T04:39:28.054Z,2.72
2023-09-23T04:41:56.702Z,2.00
2023-09-23T04:44:25.839Z,2.20
2023-09-23T04:46:54.803Z,2.47
2023-09-23T04:49:24.513Z,2.33
2023-09-23T04:51:53.836Z,2.92
2023-09-23T04:54:23.716Z,2.78
2023-09-23T04:56:52.282Z,2.53
2023-09-23T04:59:20.637Z,2.83
2023-09-23T05:01:49.326Z,3.03
2023-09-23T05:04:18.190Z,4.25
2023-09-23T05:06:48.097Z,4.22
2023-09-23T05:09:17.647Z,3.92
2023-09-23T05:11:46.292Z,3.67
2023-09-23T05:14:17.428Z,3.75
2023-09-23T05:16:46.107Z,4.05
2023-09-23T05:19:15.931Z,3.05
2023-09-23T05:21:46.471Z,4.00
2023-09-23T05:24:16.362Z,3.50
2023-09-23T05:26:45.638Z,3.75
2023-09-23T05:29:14.047Z,3.92
2023-09-23T05:31:42.900Z,3.63
2023-09-23T05:34:12.189Z,3.35
2023-09-23T05:36:41.715Z,3.13
2023-09-23T05:39:16.198Z,3.60
2023-09-23T05:41:46.164Z,3.60
2023-09-23T05:44:17.210Z,3.15
2023-09-23T05:46:46.594Z,3.50
2023-09-23T05:49:15.017Z,2.85
2023-09-23T05:51:44.314Z,3.20
2023-09-23T05:54:12.624Z,2.80
2023-09-23T05:56:41.363Z,3.13
2023-09-23T05:59:11.936Z,3.05
2023-09-23T06:01:42.303Z,2.30
2023-09-23T06:04:11.951Z,2.47
2023-09-23T06:06:40.644Z,2.40
2023-09-23T06:09:09.050Z,2.75
2023-09-23T06:11:38.480Z,2.78
2023-09-23T06:14:08.780Z,2.90
2023-09-23T06:16:38.804Z,2.53
2023-09-23T06:19:08.992Z,2.58
2023-09-23T06:21:39.414Z,3.15
2023-09-23T06:24:08.784Z,2.92
2023-09-23T06:26:37.445Z,2.63
2023-09-23T06:29:06.805Z,3.22
2023-09-23T06:31:35.714Z,2.83
2023-09-23T06:34:07.370Z,3.22
2023-09-23T06:36:36.049Z,3.63
2023-09-23T06:39:04.746Z,3.38
2023-09-23T06:41:33.350Z,3.35
2023-09-23T06:44:01.645Z,3.58
2023-09-23T06:46:30.526Z,3.78
2023-09-23T06:48:58.801Z,2.85
2023-09-23T06:51:29.356Z,2.92
2023-09-23T06:53:57.651Z,3.22
2023-09-23T06:56:26.824Z,3.83
2023-09-23T06:58:55.168Z,2.97
2023-09-23T07:01:23.830Z,4.18
2023-09-23T07:03:52.328Z,3.40
2023-09-23T07:06:20.913Z,3.65
2023-09-23T07:08:50.524Z,3.60
2023-09-23T07:11:19.197Z,3.30
2023-09-23T07:13:47.946Z,3.45
2023-09-23T07:16:17.066Z,3.33
2023-09-23T07:18:46.867Z,3.28
2023-09-23T07:21:15.535Z,3.40
2023-09-23T07:23:43.803Z,3.50
2023-09-23T07:26:20.827Z,3.10
2023-09-23T07:28:51.393Z,3.15
2023-09-23T07:31:20.278Z,2.70
2023-09-23T07:33:48.807Z,2.88
2023-09-23T07:36:18.597Z,2.30
2023-09-23T07:38:46.898Z,2.20
2023-09-23T07:41:18.300Z,2.42
2023-09-23T07:43:48.028Z,2.13
2023-09-23T07:46:16.892Z,2.75
2023-09-23T07:48:45.773Z,1.80
2023-09-23T07:51:14.442Z,2.30
2023-09-23T07:53:42.718Z,1.58
2023-09-23T07:56:11.261Z,1.90
2023-09-23T07:58:40.902Z,2.20
2023-09-23T08:01:09.418Z,1.60
2023-09-23T08:03:37.716Z,2.10
2023-09-23T08:06:06.350Z,1.77
2023-09-23T08:08:34.765Z,1.70
2023-09-23T08:11:04.121Z,1.88
2023-09-23T08:13:32.471Z,1.92
2023-09-23T08:16:04.453Z,1.73
2023-09-23T08:18:33.064Z,1.50
2023-09-23T08:21:02.191Z,2.30
2023-09-23T08:23:30.631Z,2.33
2023-09-23T08:25:59.995Z,1.95
2023-09-23T08:28:28.473Z,1.52
2023-09-23T08:30:57.096Z,1.90
2023-09-23T08:33:28.977Z,1.85
2023-09-23T08:35:58.333Z,2.22
2023-09-23T08:38:26.683Z,1.85
2023-09-23T08:40:55.604Z,2.47
2023-09-23T08:43:37.408Z,1.95
2023-09-23T08:46:07.098Z,1.75
2023-09-23T08:48:37.487Z,1.88
2023-09-23T08:51:09.629Z,1.90
2023-09-23T08:53:41.077Z,1.58
2023-09-23T08:56:09.828Z,1.42
2023-09-23T08:58:38.180Z,1.83
2023-09-23T09:01:08.312Z,1.50
2023-09-23T09:03:38.703Z,1.70
2023-09-23T09:06:17.615Z,1.17
2023-09-23T09:08:46.116Z,1.75
2023-09-23T09:11:23.161Z,1.70
2023-09-23T09:13:51.590Z,1.30
2023-09-23T09:16:22.017Z,1.20
2023-09-23T09:18:53.735Z,1.52
2023-09-23T09:21:22.303Z,1.50
2023-09-23T09:23:50.572Z,1.67
2023-09-23T09:26:19.780Z,1.13
2023-09-23T09:28:48.717Z,1.63
2023-09-23T09:31:19.768Z,1.27
2023-09-23T09:33:49.352Z,1.40
2023-09-23T09:36:21.006Z,1.38
2023-09-23T09:38:52.541Z,1.30
2023-09-23T09:41:24.278Z,1.40
2023-09-23T09:43:53.081Z,1.40
2023-09-23T09:46:23.183Z,1.20
2023-09-23T09:48:52.146Z,1.27
2023-09-23T09:51:24.170Z,1.35
2023-09-23T09:53:53.169Z,1.27
2023-09-23T09:56:22.708Z,1.30
2023-09-23T09:58:51.290Z,1.50
2023-09-23T10:01:19.961Z,1.20
2023-09-23T10:03:51.042Z,1.50
2023-09-23T10:06:23.239Z,1.33
2023-09-23T10:08:53.707Z,1.42
2023-09-23T10:11:35.701Z,1.27
2023-09-23T10:14:17.794Z,1.00
2023-09-23T10:16:51.323Z,1.08
2023-09-23T10:19:29.861Z,1.10
2023-09-23T10:22:14.965Z,1.20
2023-09-23T10:24:43.454Z,1.17
2023-09-23T10:27:12.536Z,1.33
2023-09-23T10:29:48.517Z,0.90
2023-09-23T10:32:18.326Z,0.95
2023-09-23T10:34:48.498Z,1.15
2023-09-23T10:37:31.725Z,1.45
2023-09-23T10:40:10.439Z,1.10
2023-09-23T10:42:39.434Z,1.08
2023-09-23T10:45:08.944Z,1.00
2023-09-23T10:47:38.042Z,1.00
2023-09-23T10:50:08.191Z,0.95
2023-09-23T10:52:38.875Z,1.00
2023-09-23T10:55:09.680Z,1.63
2023-09-23T10:57:38.352Z,1.10
2023-09-23T11:00:18.342Z,1.35
2023-09-23T11:02:52.935Z,0.80
2023-09-23T11:05:23.400Z,1.23
2023-09-23T11:07:55.650Z,1.08
2023-09-23T11:10:24.810Z,1.00
2023-09-23T11:12:56.654Z,0.60
2023-09-23T11:15:24.988Z,1.10
2023-09-23T11:17:56.609Z,1.40
2023-09-23T11:20:32.381Z,1.05
2023-09-23T11:23:04.898Z,1.00
2023-09-23T11:25:37.676Z,1.00
2023-09-23T11:28:06.942Z,0.90
2023-09-23T11:30:35.877Z,0.93
2023-09-23T11:33:04.649Z,1.20
2023-09-23T11:35:33.708Z,1.02
2023-09-23T11:38:04.187Z,1.23
2023-09-23T11:40:33.470Z,1.00
2023-09-23T11:43:02.242Z,1.27
2023-09-23T11:45:30.473Z,0.93
2023-09-23T11:48:00.747Z,1.23
2023-09-23T11:50:29.764Z,0.90
2023-09-23T11:52:58.674Z,1.27
2023-09-23T11:55:28.625Z,1.35
2023-09-23T11:57:57.840Z,1.02
2023-09-23T12:00:26.731Z,1.23
2023-09-23T12:02:55.952Z,1.02
2023-09-23T12:05:30.067Z,1.13
2023-09-23T12:08:00.361Z,1.17
2023-09-23T12:10:31.676Z,1.20
2023-09-23T12:13:06.301Z,1.00
2023-09-23T12:15:35.316Z,1.02
2023-09-23T12:18:04.397Z,1.52
2023-09-23T12:20:33.333Z,1.30
2023-09-23T12:23:02.444Z,1.30
2023-09-23T12:25:32.494Z,1.35
2023-09-23T12:28:01.002Z,0.90
2023-09-23T12:30:29.438Z,1.27
2023-09-23T12:32:57.997Z,1.27
2023-09-23T12:35:26.341Z,1.20
2023-09-23T12:37:55.553Z,1.27
2023-09-23T12:40:23.941Z,1.42
2023-09-23T12:42:53.938Z,1.30
2023-09-23T12:45:23.561Z,1.48
2023-09-23T12:47:56.990Z,1.75
2023-09-23T12:50:27.544Z,1.42
2023-09-23T12:52:56.419Z,1.10
2023-09-23T12:55:25.184Z,1.30
2023-09-23T12:57:56.282Z,1.38
2023-09-23T13:00:24.887Z,1.80
2023-09-23T13:02:54.049Z,1.73
2023-09-23T13:05:23.312Z,1.75
2023-09-23T13:07:52.030Z,1.80
2023-09-23T13:10:20.384Z,1.67
2023-09-23T13:12:49.023Z,1.85
2023-09-23T13:15:18.662Z,1.60
2023-09-23T13:17:47.613Z,1.48
2023-09-23T13:20:16.618Z,1.88
2023-09-23T13:22:45.238Z,1.55
2023-09-23T13:25:16.524Z,1.70
2023-09-23T13:27:45.234Z,1.60
2023-09-23T13:30:14.137Z,1.58
2023-09-23T13:32:44.367Z,1.52
2023-09-23T13:35:12.903Z,1.23
2023-09-23T13:37:41.909Z,1.63
2023-09-23T13:40:12.245Z,1.38
2023-09-23T13:42:41.092Z,1.08
2023-09-23T13:45:10.559Z,1.15
2023-09-23T13:47:39.586Z,1.23
2023-09-23T13:50:11.057Z,1.20
2023-09-23T13:52:39.845Z,1.25
2023-09-23T13:55:09.481Z,1.30
2023-09-23T13:57:38.600Z,1.17
2023-09-23T14:00:09.072Z,1.00
2023-09-23T14:02:38.950Z,1.35
2023-09-23T14:05:11.173Z,1.27
2023-09-23T14:07:40.205Z,1.20
2023-09-23T14:10:20.625Z,1.17
2023-09-23T14:12:50.319Z,1.25
2023-09-23T14:15:18.967Z,1.33
2023-09-23T14:17:48.926Z,1.10
2023-09-23T14:20:18.941Z,1.33
2023-09-23T14:22:49.483Z,1.10
2023-09-23T14:25:19.547Z,0.80
2023-09-23T14:27:48.166Z,0.88
2023-09-23T14:30:16.624Z,0.93
2023-09-23T14:32:45.317Z,0.98
2023-09-23T14:35:13.879Z,0.85
2023-09-23T14:37:45.462Z,0.80
2023-09-23T14:40:14.327Z,1.20
2023-09-23T14:42:42.954Z,1.40
2023-09-23T14:45:13.217Z,0.95
2023-09-23T14:47:43.940Z,1.10
2023-09-23T14:50:13.191Z,0.98
2023-09-23T14:52:44.090Z,1.08
2023-09-23T14:55:12.585Z,1.13
2023-09-23T14:57:42.270Z,1.05
2023-09-23T15:00:12.013Z,0.90
2023-09-23T15:02:40.768Z,0.73
2023-09-23T15:05:10.754Z,1.00
2023-09-23T15:07:39.497Z,0.80
2023-09-23T15:10:11.695Z,1.00
2023-09-23T15:12:40.697Z,0.98
2023-09-23T15:15:09.665Z,0.93
2023-09-23T15:17:40.607Z,0.68
2023-09-23T15:20:11.788Z,0.98
2023-09-23T15:22:40.817Z,0.80
2023-09-23T15:25:12.435Z,1.00
2023-09-23T15:27:41.265Z,0.80
2023-09-23T15:30:10.435Z,1.20
2023-09-23T15:32:39.631Z,1.10
2023-09-23T15:35:09.207Z,0.63
2023-09-23T15:37:37.962Z,0.75
2023-09-23T15:40:11.378Z,0.85
2023-09-23T15:42:41.506Z,0.80
2023-09-23T15:45:11.183Z,0.80
2023-09-23T15:47:41.030Z,1.00
2023-09-23T15:50:11.272Z,0.98
2023-09-23T15:52:40.027Z,1.00
2023-09-23T15:55:08.695Z,1.27
2023-09-23T15:57:37.551Z,0.80
2023-09-23T16:00:08.539Z,0.80
2023-09-23T16:02:37.600Z,1.08
2023-09-23T16:05:08.270Z,0.68
2023-09-23T16:07:36.895Z,0.57
2023-09-23T16:10:05.638Z,1.10
2023-09-23T16:12:34.195Z,0.93
2023-09-23T16:15:02.403Z,0.85
2023-09-23T16:17:32.596Z,0.80
2023-09-23T16:20:00.937Z,0.95
2023-09-23T16:22:29.652Z,0.77
2023-09-23T16:24:57.853Z,0.70
2023-09-23T16:27:26.564Z,0.73
2023-09-23T16:29:54.900Z,0.70
2023-09-23T16:32:23.552Z,0.80
2023-09-23T16:34:53.388Z,0.95
2023-09-23T16:37:21.932Z,0.82
2023-09-23T16:39:50.206Z,0.90
2023-09-23T16:42:18.696Z,0.93
2023-09-23T16:44:46.973Z,1.23
2023-09-23T16:47:15.872Z,0.80
2023-09-23T16:49:44.710Z,0.93
2023-09-23T16:52:16.022Z,0.80
2023-09-23T16:54:45.074Z,0.93
2023-09-23T16:57:14.051Z,0.85
2023-09-23T16:59:42.441Z,0.70
2023-09-23T17:02:11.024Z,0.95
2023-09-23T17:04:39.877Z,0.77
2023-09-23T17:07:08.432Z,1.13
2023-09-23T17:09:37.963Z,0.88
2023-09-23T17:12:07.040Z,1.08
2023-09-23T17:14:36.294Z,0.70
2023-09-23T17:17:05.133Z,1.08
2023-09-23T17:19:33.332Z,0.73
2023-09-23T17:22:02.204Z,0.70
2023-09-23T17:24:31.252Z,0.60
2023-09-23T17:27:01.220Z,0.80
2023-09-23T17:29:29.534Z,1.02
2023-09-23T17:31:58.360Z,1.00
2023-09-23T17:34:26.615Z,0.95
2023-09-23T17:36:55.176Z,0.98
2023-09-23T17:39:23.795Z,1.35
2023-09-23T17:41:52.365Z,1.13
2023-09-23T17:44:22.057Z,0.90
2023-09-23T17:46:50.735Z,1.10
2023-09-23T17:49:19.016Z,1.00
2023-09-23T17:51:48.213Z,1.08
2023-09-23T17:54:16.538Z,1.00
2023-09-23T17:56:45.118Z,0.95
2023-09-23T17:59:13.432Z,1.48
2023-09-23T18:01:43.396Z,1.27
2023-09-23T18:04:12.402Z,1.20
2023-09-23T18:06:41.857Z,1.52
2023-09-23T18:09:10.472Z,0.98
2023-09-23T18:11:39.279Z,0.93
2023-09-23T18:14:07.737Z,1.48
2023-09-23T18:16:36.549Z,1.10
2023-09-23T18:19:06.426Z,1.23
2023-09-23T18:21:35.382Z,1.10
2023-09-23T18:24:04.076Z,1.10
2023-09-23T18:26:33.315Z,1.35
2023-09-23T18:29:01.738Z,1.08
2023-09-23T18:31:32.152Z,0.90
2023-09-23T18:34:00.895Z,1.00
2023-09-23T18:36:30.991Z,0.88
2023-09-23T18:38:59.384Z,1.05
2023-09-23T18:41:28.231Z,1.08
2023-09-23T18:43:56.760Z,1.00
2023-09-23T18:46:27.048Z,1.00
2023-09-23T18:48:55.540Z,1.27
2023-09-23T18:51:24.699Z,1.40
2023-09-23T18:53:54.812Z,1.02
2023-09-23T18:56:24.579Z,0.95
2023-09-23T18:58:53.035Z,1.10
2023-09-23T19:01:21.958Z,0.70
2023-09-23T19:03:50.866Z,1.17
2023-09-23T19:06:19.931Z,1.02
2023-09-23T19:08:48.695Z,1.30
2023-09-23T19:11:21.065Z,1.30
2023-09-23T19:13:49.571Z,1.17
2023-09-23T19:16:18.647Z,1.25
2023-09-23T19:18:47.106Z,0.90
2023-09-23T19:21:15.977Z,0.88
2023-09-23T19:23:44.528Z,1.10
2023-09-23T19:26:13.468Z,1.40
2023-09-23T19:28:45.234Z,0.93
2023-09-23T19:31:17.038Z,1.10
2023-09-23T19:33:48.251Z,1.30
2023-09-23T19:36:17.632Z,1.45
2023-09-23T19:38:46.277Z,1.58
2023-09-23T19:41:15.182Z,1.20
2023-09-23T19:43:45.205Z,1.23
2023-09-23T19:46:14.738Z,1.30
2023-09-23T19:48:43.204Z,1.40
2023-09-23T19:51:13.759Z,1.40
2023-09-23T19:53:42.208Z,1.40
2023-09-23T19:56:11.124Z,1.15
2023-09-23T19:58:39.517Z,1.70
2023-09-23T20:01:10.034Z,1.17
2023-09-23T20:03:38.506Z,1.15
2023-09-23T20:06:08.152Z,0.90
2023-09-23T20:08:36.670Z,1.58
2023-09-23T20:11:06.321Z,1.33
2023-09-23T20:13:35.321Z,1.50
2023-09-23T20:16:04.224Z,1.35
2023-09-23T20:18:34.208Z,1.65
2023-09-23T20:21:03.375Z,1.25
2023-09-23T20:23:32.837Z,1.50
2023-09-23T20:26:01.870Z,1.50
2023-09-23T20:28:30.336Z,1.67
2023-09-23T20:31:00.572Z,1.63
2023-09-23T20:33:29.842Z,1.10
2023-09-23T20:36:01.460Z,1.60
2023-09-23T20:38:30.046Z,1.20
2023-09-23T20:41:03.112Z,1.30
2023-09-23T20:43:32.422Z,0.98
2023-09-23T20:46:01.314Z,1.27
2023-09-23T20:48:29.820Z,1.35
2023-09-23T20:51:00.285Z,1.48
2023-09-23T20:53:28.902Z,1.30
2023-09-23T20:55:57.448Z,1.40
2023-09-23T20:58:25.732Z,1.58
2023-09-23T21:00:54.346Z,1.10
2023-09-23T21:03:22.787Z,1.63
2023-09-23T21:05:51.706Z,1.67
2023-09-23T21:08:21.516Z,1.35
2023-09-23T21:10:50.064Z,1.67
2023-09-23T21:13:18.317Z,1.55
2023-09-23T21:15:46.836Z,1.63
2023-09-23T21:18:15.175Z,1.58
2023-09-23T21:20:43.751Z,1.52
2023-09-23T21:23:11.974Z,1.20
2023-09-23T21:25:41.822Z,1.33
2023-09-23T21:28:10.041Z,1.40
2023-09-23T21:30:38.559Z,1.35
2023-09-23T21:33:07.349Z,1.67
2023-09-23T21:35:36.018Z,1.60
2023-09-23T21:38:04.586Z,1.52
2023-09-23T21:40:33.442Z,1.42
2023-09-23T21:43:02.985Z,1.67
2023-09-23T21:45:31.704Z,1.15
2023-09-23T21:48:02.314Z,1.70
2023-09-23T21:50:30.932Z,1.92
2023-09-23T21:52:59.208Z,1.20
2023-09-23T21:55:27.751Z,1.65
2023-09-23T21:57:56.477Z,1.35
2023-09-23T22:00:29.353Z,1.63
2023-09-23T22:02:59.913Z,1.35
2023-09-23T22:05:31.129Z,1.70
2023-09-23T22:08:01.386Z,1.35
2023-09-23T22:10:30.388Z,1.58
2023-09-23T22:13:00.349Z,1.42
2023-09-23T22:15:31.645Z,1.73
2023-09-23T22:18:00.055Z,1.50
2023-09-23T22:20:28.919Z,1.90
2023-09-23T22:22:57.966Z,1.80
2023-09-23T22:25:26.821Z,1.63
2023-09-23T22:27:56.350Z,1.45
2023-09-23T22:30:27.012Z,1.60
2023-09-23T22:32:58.593Z,1.85
2023-09-23T22:35:28.963Z,1.67
2023-09-23T22:37:58.309Z,1.60
2023-09-23T22:40:27.131Z,1.35
2023-09-23T22:42:58.396Z,1.80
2023-09-23T22:45:38.801Z,1.98
2023-09-23T22:48:09.901Z,1.65
2023-09-23T22:50:39.280Z,1.67
2023-09-23T22:53:08.675Z,1.38
2023-09-23T22:55:39.425Z,1.85
2023-09-23T22:58:08.189Z,1.85
2023-09-23T23:00:37.510Z,1.75
2023-09-23T23:03:07.835Z,1.40
2023-09-23T23:05:39.784Z,2.08
2023-09-23T23:08:09.282Z,1.70
2023-09-23T23:10:38.079Z,1.67
2023-09-23T23:13:09.846Z,1.63
2023-09-23T23:15:38.894Z,1.77
2023-09-23T23:18:07.728Z,2.00
2023-09-23T23:20:36.337Z,1.80
2023-09-23T23:23:06.142Z,1.70
2023-09-23T23:25:37.575Z,1.90
2023-09-23T23:28:08.267Z,2.00
2023-09-23T23:30:38.302Z,1.52
2023-09-23T23:33:07.247Z,1.67
2023-09-23T23:35:38.844Z,1.80
2023-09-23T23:38:10.631Z,1.83
2023-09-23T23:40:39.159Z,1.92
2023-09-23T23:43:08.171Z,1.83
2023-09-23T23:45:36.699Z,1.85
2023-09-23T23:48:05.866Z,1.85
2023-09-23T23:50:34.545Z,1.55
2023-09-23T23:53:03.879Z,1.92
2023-09-23T23:55:33.753Z,1.73
2023-09-23T23:58:01.990Z,1.80
